sensor_id;sensor_type;location;lat;lon;timestamp;temperature;humidity
54938;DHT22;52756;52.826;6.214;2023-04-01T00:01:31;10.60;89.90
54938;DHT22;52756;52.826;6.214;2023-04-01T00:03:57;10.60;89.90
54938;DHT22;52756;52.826;6.214;2023-04-01T00:06:23;10.60;90.10
54938;DHT22;52756;52.826;6.214;2023-04-01T00:08:49;10.60;89.90
54938;DHT22;52756;52.826;6.214;2023-04-01T00:11:16;10.60;90.00
54938;DHT22;52756;52.826;6.214;2023-04-01T00:13:42;10.60;90.00
54938;DHT22;52756;52.826;6.214;2023-04-01T00:16:08;10.60;90.00
54938;DHT22;52756;52.826;6.214;2023-04-01T00:18:33;10.60;90.00
54938;DHT22;52756;52.826;6.214;2023-04-01T00:20:59;10.60;90.00
54938;DHT22;52756;52.826;6.214;2023-04-01T00:23:25;10.60;90.00
54938;DHT22;52756;52.826;6.214;2023-04-01T00:25:51;10.60;90.00
54938;DHT22;52756;52.826;6.214;2023-04-01T00:28:18;10.60;90.00
54938;DHT22;52756;52.826;6.214;2023-04-01T00:30:44;10.60;90.10
54938;DHT22;52756;52.826;6.214;2023-04-01T00:33:12;10.60;90.10
54938;DHT22;52756;52.826;6.214;2023-04-01T00:35:38;10.60;90.30
54938;DHT22;52756;52.826;6.214;2023-04-01T00:38:04;10.60;90.10
54938;DHT22;52756;52.826;6.214;2023-04-01T00:40:43;10.60;90.10
54938;DHT22;52756;52.826;6.214;2023-04-01T00:43:18;10.60;90.10
54938;DHT22;52756;52.826;6.214;2023-04-01T00:45:45;10.60;90.10
54938;DHT22;52756;52.826;6.214;2023-04-01T00:48:16;10.60;90.10
54938;DHT22;52756;52.826;6.214;2023-04-01T00:50:47;10.60;90.10
54938;DHT22;52756;52.826;6.214;2023-04-01T00:53:14;10.60;90.10
54938;DHT22;52756;52.826;6.214;2023-04-01T00:55:46;10.60;90.10
54938;DHT22;52756;52.826;6.214;2023-04-01T00:58:15;10.60;90.10
54938;DHT22;52756;52.826;6.214;2023-04-01T01:00:42;10.60;90.20
54938;DHT22;52756;52.826;6.214;2023-04-01T01:03:08;10.60;90.20
54938;DHT22;52756;52.826;6.214;2023-04-01T01:11:42;10.60;90.20
54938;DHT22;52756;52.826;6.214;2023-04-01T01:14:39;10.60;90.20
54938;DHT22;52756;52.826;6.214;2023-04-01T01:17:13;10.60;90.20
54938;DHT22;52756;52.826;6.214;2023-04-01T01:22:35;10.60;90.30
54938;DHT22;52756;52.826;6.214;2023-04-01T01:30:57;10.60;90.20
54938;DHT22;52756;52.826;6.214;2023-04-01T01:33:51;10.60;90.30
54938;DHT22;52756;52.826;6.214;2023-04-01T01:36:19;10.60;90.30
54938;DHT22;52756;52.826;6.214;2023-04-01T01:38:48;10.60;90.20
54938;DHT22;52756;52.826;6.214;2023-04-01T01:41:16;10.60;90.30
54938;DHT22;52756;52.826;6.214;2023-04-01T01:43:46;10.60;90.30
54938;DHT22;52756;52.826;6.214;2023-04-01T01:46:16;10.60;90.30
54938;DHT22;52756;52.826;6.214;2023-04-01T01:48:43;10.60;90.30
54938;DHT22;52756;52.826;6.214;2023-04-01T01:51:11;10.60;90.30
54938;DHT22;52756;52.826;6.214;2023-04-01T01:53:37;10.60;90.30
54938;DHT22;52756;52.826;6.214;2023-04-01T01:56:03;10.60;90.30
54938;DHT22;52756;52.826;6.214;2023-04-01T01:58:36;10.60;90.30
54938;DHT22;52756;52.826;6.214;2023-04-01T02:01:16;10.60;90.30
54938;DHT22;52756;52.826;6.214;2023-04-01T02:03:43;10.70;90.40
54938;DHT22;52756;52.826;6.214;2023-04-01T02:06:13;10.60;90.30
54938;DHT22;52756;52.826;6.214;2023-04-01T02:11:12;10.60;90.30
54938;DHT22;52756;52.826;6.214;2023-04-01T02:16:20;10.60;90.30
54938;DHT22;52756;52.826;6.214;2023-04-01T02:18:49;10.60;90.30
54938;DHT22;52756;52.826;6.214;2023-04-01T02:21:17;10.60;90.30
54938;DHT22;52756;52.826;6.214;2023-04-01T02:23:45;10.60;90.30
54938;DHT22;52756;52.826;6.214;2023-04-01T02:26:13;10.60;90.30
54938;DHT22;52756;52.826;6.214;2023-04-01T02:28:41;10.60;90.30
54938;DHT22;52756;52.826;6.214;2023-04-01T02:31:10;10.60;90.40
54938;DHT22;52756;52.826;6.214;2023-04-01T02:33:38;10.60;90.40
54938;DHT22;52756;52.826;6.214;2023-04-01T02:36:04;10.60;90.40
54938;DHT22;52756;52.826;6.214;2023-04-01T02:38:31;10.60;90.40
54938;DHT22;52756;52.826;6.214;2023-04-01T02:40:59;10.60;90.40
54938;DHT22;52756;52.826;6.214;2023-04-01T02:43:26;10.60;90.40
54938;DHT22;52756;52.826;6.214;2023-04-01T02:45:52;10.60;90.40
54938;DHT22;52756;52.826;6.214;2023-04-01T02:48:18;10.60;90.30
54938;DHT22;52756;52.826;6.214;2023-04-01T02:50:43;10.60;90.30
54938;DHT22;52756;52.826;6.214;2023-04-01T02:53:09;10.60;90.50
54938;DHT22;52756;52.826;6.214;2023-04-01T02:55:35;10.70;90.40
54938;DHT22;52756;52.826;6.214;2023-04-01T02:58:01;10.60;90.40
54938;DHT22;52756;52.826;6.214;2023-04-01T03:00:27;10.60;90.40
54938;DHT22;52756;52.826;6.214;2023-04-01T03:02:53;10.60;90.40
54938;DHT22;52756;52.826;6.214;2023-04-01T03:05:20;10.60;90.40
54938;DHT22;52756;52.826;6.214;2023-04-01T03:07:46;10.60;90.40
54938;DHT22;52756;52.826;6.214;2023-04-01T03:10:12;10.60;90.40
54938;DHT22;52756;52.826;6.214;2023-04-01T03:12:38;10.70;90.40
54938;DHT22;52756;52.826;6.214;2023-04-01T03:15:04;10.70;90.40
54938;DHT22;52756;52.826;6.214;2023-04-01T03:17:30;10.70;90.40
54938;DHT22;52756;52.826;6.214;2023-04-01T03:19:55;10.70;90.40
54938;DHT22;52756;52.826;6.214;2023-04-01T03:22:21;10.70;90.40
54938;DHT22;52756;52.826;6.214;2023-04-01T03:24:48;10.70;90.40
54938;DHT22;52756;52.826;6.214;2023-04-01T03:27:14;10.70;90.40
54938;DHT22;52756;52.826;6.214;2023-04-01T03:29:40;10.70;90.40
54938;DHT22;52756;52.826;6.214;2023-04-01T03:32:05;10.70;90.40
54938;DHT22;52756;52.826;6.214;2023-04-01T03:34:31;10.70;90.40
54938;DHT22;52756;52.826;6.214;2023-04-01T03:36:57;10.70;90.40
54938;DHT22;52756;52.826;6.214;2023-04-01T03:39:23;10.70;90.40
54938;DHT22;52756;52.826;6.214;2023-04-01T03:41:49;10.70;90.40
54938;DHT22;52756;52.826;6.214;2023-04-01T03:44:15;10.70;90.40
54938;DHT22;52756;52.826;6.214;2023-04-01T03:46:41;10.70;90.40
54938;DHT22;52756;52.826;6.214;2023-04-01T03:49:08;10.70;90.40
54938;DHT22;52756;52.826;6.214;2023-04-01T03:51:41;10.70;90.40
54938;DHT22;52756;52.826;6.214;2023-04-01T03:54:08;10.80;90.40
54938;DHT22;52756;52.826;6.214;2023-04-01T03:56:34;10.80;90.40
54938;DHT22;52756;52.826;6.214;2023-04-01T03:59:05;10.80;90.40
54938;DHT22;52756;52.826;6.214;2023-04-01T04:01:31;10.80;90.40
54938;DHT22;52756;52.826;6.214;2023-04-01T04:03:57;10.80;90.40
54938;DHT22;52756;52.826;6.214;2023-04-01T04:06:27;10.80;90.40
54938;DHT22;52756;52.826;6.214;2023-04-01T04:08:53;10.80;90.30
54938;DHT22;52756;52.826;6.214;2023-04-01T04:11:21;10.80;90.30
54938;DHT22;52756;52.826;6.214;2023-04-01T04:13:47;10.80;90.30
54938;DHT22;52756;52.826;6.214;2023-04-01T04:16:14;10.70;90.30
54938;DHT22;52756;52.826;6.214;2023-04-01T04:18:40;10.80;90.40
54938;DHT22;52756;52.826;6.214;2023-04-01T04:21:06;10.80;90.40
54938;DHT22;52756;52.826;6.214;2023-04-01T04:23:32;10.70;90.30
54938;DHT22;52756;52.826;6.214;2023-04-01T04:26:11;10.80;90.40
54938;DHT22;52756;52.826;6.214;2023-04-01T04:28:37;10.80;90.40
54938;DHT22;52756;52.826;6.214;2023-04-01T04:31:04;10.70;90.30
54938;DHT22;52756;52.826;6.214;2023-04-01T04:33:34;10.70;90.30
54938;DHT22;52756;52.826;6.214;2023-04-01T04:36:01;10.70;90.30
54938;DHT22;52756;52.826;6.214;2023-04-01T04:38:27;10.70;90.30
54938;DHT22;52756;52.826;6.214;2023-04-01T04:40:53;10.70;90.30
54938;DHT22;52756;52.826;6.214;2023-04-01T04:43:19;10.70;90.30
54938;DHT22;52756;52.826;6.214;2023-04-01T04:45:45;10.70;90.30
54938;DHT22;52756;52.826;6.214;2023-04-01T04:48:13;10.70;90.30
54938;DHT22;52756;52.826;6.214;2023-04-01T04:50:42;10.70;90.40
54938;DHT22;52756;52.826;6.214;2023-04-01T04:53:12;10.70;90.30
54938;DHT22;52756;52.826;6.214;2023-04-01T04:55:42;10.70;90.40
54938;DHT22;52756;52.826;6.214;2023-04-01T04:58:08;10.70;90.40
54938;DHT22;52756;52.826;6.214;2023-04-01T05:00:33;10.70;90.40
54938;DHT22;52756;52.826;6.214;2023-04-01T05:03:00;10.60;90.30
54938;DHT22;52756;52.826;6.214;2023-04-01T05:05:26;10.70;90.40
54938;DHT22;52756;52.826;6.214;2023-04-01T05:07:51;10.70;90.40
54938;DHT22;52756;52.826;6.214;2023-04-01T05:10:17;10.60;90.40
54938;DHT22;52756;52.826;6.214;2023-04-01T05:12:43;10.60;90.40
54938;DHT22;52756;52.826;6.214;2023-04-01T05:15:09;10.60;90.40
54938;DHT22;52756;52.826;6.214;2023-04-01T05:17:34;10.70;90.40
54938;DHT22;52756;52.826;6.214;2023-04-01T05:20:00;10.60;90.40
54938;DHT22;52756;52.826;6.214;2023-04-01T05:22:26;10.60;90.40
54938;DHT22;52756;52.826;6.214;2023-04-01T05:24:52;10.70;90.50
54938;DHT22;52756;52.826;6.214;2023-04-01T05:27:18;10.60;90.40
54938;DHT22;52756;52.826;6.214;2023-04-01T05:29:44;10.60;90.40
54938;DHT22;52756;52.826;6.214;2023-04-01T05:32:09;10.60;90.40
54938;DHT22;52756;52.826;6.214;2023-04-01T05:34:35;10.70;90.50
54938;DHT22;52756;52.826;6.214;2023-04-01T05:37:01;10.60;90.50
54938;DHT22;52756;52.826;6.214;2023-04-01T05:39:26;10.60;90.50
54938;DHT22;52756;52.826;6.214;2023-04-01T05:41:52;10.60;90.50
54938;DHT22;52756;52.826;6.214;2023-04-01T05:44:18;10.60;90.50
54938;DHT22;52756;52.826;6.214;2023-04-01T05:46:44;10.60;90.50
54938;DHT22;52756;52.826;6.214;2023-04-01T05:49:09;10.60;90.50
54938;DHT22;52756;52.826;6.214;2023-04-01T05:51:35;10.60;90.50
54938;DHT22;52756;52.826;6.214;2023-04-01T05:54:01;10.60;90.50
54938;DHT22;52756;52.826;6.214;2023-04-01T05:56:26;10.60;90.50
54938;DHT22;52756;52.826;6.214;2023-04-01T05:58:53;10.70;90.60
54938;DHT22;52756;52.826;6.214;2023-04-01T06:01:20;10.70;90.60
54938;DHT22;52756;52.826;6.214;2023-04-01T06:03:45;10.60;90.60
54938;DHT22;52756;52.826;6.214;2023-04-01T06:06:18;10.60;90.60
54938;DHT22;52756;52.826;6.214;2023-04-01T06:08:45;10.70;90.70
54938;DHT22;52756;52.826;6.214;2023-04-01T06:11:35;10.60;90.60
54938;DHT22;52756;52.826;6.214;2023-04-01T06:23:01;10.70;90.70
54938;DHT22;52756;52.826;6.214;2023-04-01T06:25:38;10.70;90.70
54938;DHT22;52756;52.826;6.214;2023-04-01T06:31:05;10.70;90.70
54938;DHT22;52756;52.826;6.214;2023-04-01T06:33:52;10.70;90.70
54938;DHT22;52756;52.826;6.214;2023-04-01T06:54:07;10.80;90.80
54938;DHT22;52756;52.826;6.214;2023-04-01T06:56:37;10.80;90.70
54938;DHT22;52756;52.826;6.214;2023-04-01T06:59:17;10.80;90.80
54938;DHT22;52756;52.826;6.214;2023-04-01T07:04:49;10.80;90.80
54938;DHT22;52756;52.826;6.214;2023-04-01T07:09:56;10.80;90.80
54938;DHT22;52756;52.826;6.214;2023-04-01T07:12:49;10.80;90.80
54938;DHT22;52756;52.826;6.214;2023-04-01T07:15:33;10.90;90.80
54938;DHT22;52756;52.826;6.214;2023-04-01T07:18:14;10.90;90.80
54938;DHT22;52756;52.826;6.214;2023-04-01T07:20:42;10.90;90.80
54938;DHT22;52756;52.826;6.214;2023-04-01T07:23:39;10.90;90.80
54938;DHT22;52756;52.826;6.214;2023-04-01T07:26:23;10.90;90.70
54938;DHT22;52756;52.826;6.214;2023-04-01T07:28:52;10.90;90.80
54938;DHT22;52756;52.826;6.214;2023-04-01T07:34:12;10.90;90.80
54938;DHT22;52756;52.826;6.214;2023-04-01T07:36:45;10.90;90.70
54938;DHT22;52756;52.826;6.214;2023-04-01T07:39:30;10.90;90.70
54938;DHT22;52756;52.826;6.214;2023-04-01T07:50:06;10.90;90.70
54938;DHT22;52756;52.826;6.214;2023-04-01T07:56:01;10.90;90.70
54938;DHT22;52756;52.826;6.214;2023-04-01T07:58:21;11.00;90.70
54938;DHT22;52756;52.826;6.214;2023-04-01T08:00:57;11.00;90.70
54938;DHT22;52756;52.826;6.214;2023-04-01T08:06:18;11.00;90.70
54938;DHT22;52756;52.826;6.214;2023-04-01T08:22:16;11.00;90.40
54938;DHT22;52756;52.826;6.214;2023-04-01T08:24:48;11.00;90.40
54938;DHT22;52756;52.826;6.214;2023-04-01T08:27:37;11.00;90.30
54938;DHT22;52756;52.826;6.214;2023-04-01T08:30:25;11.00;90.30
54938;DHT22;52756;52.826;6.214;2023-04-01T08:33:03;11.00;90.20
54938;DHT22;52756;52.826;6.214;2023-04-01T08:38:37;11.00;90.20
54938;DHT22;52756;52.826;6.214;2023-04-01T08:44:15;11.00;90.30
54938;DHT22;52756;52.826;6.214;2023-04-01T08:46:58;11.00;90.30
54938;DHT22;52756;52.826;6.214;2023-04-01T09:00:25;11.00;90.60
54938;DHT22;52756;52.826;6.214;2023-04-01T09:03:36;11.10;90.80
54938;DHT22;52756;52.826;6.214;2023-04-01T09:16:09;11.20;90.80
54938;DHT22;52756;52.826;6.214;2023-04-01T09:24:42;11.30;90.80
54938;DHT22;52756;52.826;6.214;2023-04-01T09:27:28;11.30;90.80
54938;DHT22;52756;52.826;6.214;2023-04-01T09:30:40;11.30;90.80
54938;DHT22;52756;52.826;6.214;2023-04-01T09:35:46;11.40;90.90
54938;DHT22;52756;52.826;6.214;2023-04-01T09:38:23;11.40;90.80
54938;DHT22;52756;52.826;6.214;2023-04-01T09:41:00;11.50;90.90
54938;DHT22;52756;52.826;6.214;2023-04-01T09:46:15;11.60;90.90
54938;DHT22;52756;52.826;6.214;2023-04-01T09:51:53;11.70;90.80
54938;DHT22;52756;52.826;6.214;2023-04-01T10:06:36;11.80;90.50
54938;DHT22;52756;52.826;6.214;2023-04-01T10:09:24;11.90;90.60
54938;DHT22;52756;52.826;6.214;2023-04-01T10:12:02;11.90;90.50
54938;DHT22;52756;52.826;6.214;2023-04-01T10:27:07;12.00;90.00
54938;DHT22;52756;52.826;6.214;2023-04-01T10:29:30;12.10;89.90
54938;DHT22;52756;52.826;6.214;2023-04-01T10:40:26;12.10;89.00
54938;DHT22;52756;52.826;6.214;2023-04-01T10:45:57;12.10;88.90
54938;DHT22;52756;52.826;6.214;2023-04-01T10:51:26;12.20;88.60
54938;DHT22;52756;52.826;6.214;2023-04-01T10:57:08;12.20;88.60
54938;DHT22;52756;52.826;6.214;2023-04-01T11:09:11;12.20;88.60
54938;DHT22;52756;52.826;6.214;2023-04-01T11:14:42;12.20;87.40
54938;DHT22;52756;52.826;6.214;2023-04-01T11:23:12;11.90;87.50
54938;DHT22;52756;52.826;6.214;2023-04-01T11:26:05;11.90;87.60
54938;DHT22;52756;52.826;6.214;2023-04-01T11:42:30;11.60;88.20
54938;DHT22;52756;52.826;6.214;2023-04-01T11:45:20;11.60;88.10
54938;DHT22;52756;52.826;6.214;2023-04-01T11:50:42;11.50;88.00
54938;DHT22;52756;52.826;6.214;2023-04-01T11:56:35;11.50;88.20
54938;DHT22;52756;52.826;6.214;2023-04-01T12:02:05;11.40;87.90
54938;DHT22;52756;52.826;6.214;2023-04-01T12:10:15;11.30;87.70
54938;DHT22;52756;52.826;6.214;2023-04-01T12:15:32;11.30;88.10
54938;DHT22;52756;52.826;6.214;2023-04-01T12:24:01;11.20;88.30
54938;DHT22;52756;52.826;6.214;2023-04-01T12:39:51;10.90;88.20
54938;DHT22;52756;52.826;6.214;2023-04-01T12:56:49;11.10;88.40
54938;DHT22;52756;52.826;6.214;2023-04-01T13:07:59;11.20;88.20
54938;DHT22;52756;52.826;6.214;2023-04-01T13:16:03;11.10;88.30
54938;DHT22;52756;52.826;6.214;2023-04-01T13:21:06;11.10;88.10
54938;DHT22;52756;52.826;6.214;2023-04-01T13:23:45;11.10;87.90
54938;DHT22;52756;52.826;6.214;2023-04-01T13:26:39;11.10;87.80
54938;DHT22;52756;52.826;6.214;2023-04-01T13:37:48;10.90;87.60
54938;DHT22;52756;52.826;6.214;2023-04-01T13:40:26;10.90;87.60
54938;DHT22;52756;52.826;6.214;2023-04-01T13:54:40;10.80;87.40
54938;DHT22;52756;52.826;6.214;2023-04-01T14:02:47;10.80;87.90
54938;DHT22;52756;52.826;6.214;2023-04-01T14:05:37;10.80;87.40
54938;DHT22;52756;52.826;6.214;2023-04-01T14:08:29;10.80;87.60
54938;DHT22;52756;52.826;6.214;2023-04-01T14:11:06;10.80;87.60
54938;DHT22;52756;52.826;6.214;2023-04-01T14:13:41;10.70;87.60
54938;DHT22;52756;52.826;6.214;2023-04-01T14:22:05;10.60;87.20
54938;DHT22;52756;52.826;6.214;2023-04-01T14:25:38;10.60;87.30
54938;DHT22;52756;52.826;6.214;2023-04-01T14:36:02;10.50;87.10
54938;DHT22;52756;52.826;6.214;2023-04-01T14:43:14;10.40;86.70
54938;DHT22;52756;52.826;6.214;2023-04-01T14:48:56;10.30;86.50
54938;DHT22;52756;52.826;6.214;2023-04-01T14:51:35;10.20;86.70
54938;DHT22;52756;52.826;6.214;2023-04-01T14:56:42;10.20;87.40
54938;DHT22;52756;52.826;6.214;2023-04-01T14:59:27;10.20;87.30
54938;DHT22;52756;52.826;6.214;2023-04-01T15:04:58;10.10;87.40
54938;DHT22;52756;52.826;6.214;2023-04-01T15:10:46;10.10;87.40
54938;DHT22;52756;52.826;6.214;2023-04-01T15:13:22;10.10;87.40
54938;DHT22;52756;52.826;6.214;2023-04-01T15:21:40;10.00;87.50
54938;DHT22;52756;52.826;6.214;2023-04-01T15:25:17;10.00;87.70
54938;DHT22;52756;52.826;6.214;2023-04-01T15:27:21;10.00;87.70
54938;DHT22;52756;52.826;6.214;2023-04-01T15:29:59;9.90;87.60
54938;DHT22;52756;52.826;6.214;2023-04-01T15:38:32;9.90;88.00
54938;DHT22;52756;52.826;6.214;2023-04-01T15:47:32;9.80;87.00
54938;DHT22;52756;52.826;6.214;2023-04-01T15:55:56;9.70;87.10
54938;DHT22;52756;52.826;6.214;2023-04-01T15:58:47;9.70;87.30
54938;DHT22;52756;52.826;6.214;2023-04-01T16:01:47;9.70;87.40
54938;DHT22;52756;52.826;6.214;2023-04-01T16:07:40;9.70;87.40
54938;DHT22;52756;52.826;6.214;2023-04-01T16:13:41;9.60;86.70
54938;DHT22;52756;52.826;6.214;2023-04-01T16:19:22;9.60;86.40
54938;DHT22;52756;52.826;6.214;2023-04-01T16:24:37;9.50;86.30
54938;DHT22;52756;52.826;6.214;2023-04-01T16:39:08;9.40;86.00
54938;DHT22;52756;52.826;6.214;2023-04-01T16:45:00;9.40;86.00
54938;DHT22;52756;52.826;6.214;2023-04-01T16:47:36;9.30;86.10
54938;DHT22;52756;52.826;6.214;2023-04-01T16:50:19;9.30;85.90
54938;DHT22;52756;52.826;6.214;2023-04-01T16:53:14;9.30;85.60
54938;DHT22;52756;52.826;6.214;2023-04-01T16:58:27;9.20;85.30
54938;DHT22;52756;52.826;6.214;2023-04-01T17:01:20;9.10;85.30
54938;DHT22;52756;52.826;6.214;2023-04-01T17:03:52;9.10;85.30
54938;DHT22;52756;52.826;6.214;2023-04-01T17:12:16;9.00;85.60
54938;DHT22;52756;52.826;6.214;2023-04-01T17:15:07;9.00;85.40
54938;DHT22;52756;52.826;6.214;2023-04-01T17:18:01;9.00;85.50
54938;DHT22;52756;52.826;6.214;2023-04-01T17:23:34;8.90;85.10
54938;DHT22;52756;52.826;6.214;2023-04-01T17:29:13;8.80;85.00
54938;DHT22;52756;52.826;6.214;2023-04-01T17:39:38;8.70;84.50
54938;DHT22;52756;52.826;6.214;2023-04-01T17:50:24;8.70;84.60
54938;DHT22;52756;52.826;6.214;2023-04-01T17:56:11;8.50;84.30
54938;DHT22;52756;52.826;6.214;2023-04-01T18:04:30;8.40;84.70
54938;DHT22;52756;52.826;6.214;2023-04-01T18:18:10;8.20;84.20
54938;DHT22;52756;52.826;6.214;2023-04-01T18:20:47;8.20;84.50
54938;DHT22;52756;52.826;6.214;2023-04-01T18:23:46;8.10;84.70
54938;DHT22;52756;52.826;6.214;2023-04-01T18:26:28;8.10;84.90
54938;DHT22;52756;52.826;6.214;2023-04-01T18:31:49;8.00;84.90
54938;DHT22;52756;52.826;6.214;2023-04-01T18:37:17;8.00;85.20
54938;DHT22;52756;52.826;6.214;2023-04-01T18:42:59;7.90;85.10
54938;DHT22;52756;52.826;6.214;2023-04-01T18:45:37;7.90;85.20
54938;DHT22;52756;52.826;6.214;2023-04-01T18:54:00;7.80;84.90
54938;DHT22;52756;52.826;6.214;2023-04-01T18:56:34;7.80;85.10
54938;DHT22;52756;52.826;6.214;2023-04-01T18:59:23;7.80;84.80
54938;DHT22;52756;52.826;6.214;2023-04-01T19:05:48;7.80;84.50
54938;DHT22;52756;52.826;6.214;2023-04-01T19:07:48;7.70;84.50
54938;DHT22;52756;52.826;6.214;2023-04-01T19:27:07;7.60;84.70
54938;DHT22;52756;52.826;6.214;2023-04-01T19:45:55;7.50;84.90
54938;DHT22;52756;52.826;6.214;2023-04-01T19:48:59;7.50;84.40
54938;DHT22;52756;52.826;6.214;2023-04-01T19:52:11;7.40;84.30
54938;DHT22;52756;52.826;6.214;2023-04-01T19:57:49;7.40;84.20
54938;DHT22;52756;52.826;6.214;2023-04-01T20:03:03;7.30;84.40
54938;DHT22;52756;52.826;6.214;2023-04-01T20:05:47;7.40;84.60
54938;DHT22;52756;52.826;6.214;2023-04-01T20:08:26;7.40;84.40
54938;DHT22;52756;52.826;6.214;2023-04-01T20:17:18;7.30;83.80
54938;DHT22;52756;52.826;6.214;2023-04-01T20:25:17;7.30;84.10
54938;DHT22;52756;52.826;6.214;2023-04-01T20:27:52;7.20;84.00
54938;DHT22;52756;52.826;6.214;2023-04-01T20:43:49;7.20;83.60
54938;DHT22;52756;52.826;6.214;2023-04-01T20:46:23;7.20;83.40
54938;DHT22;52756;52.826;6.214;2023-04-01T20:49:26;7.10;83.40
54938;DHT22;52756;52.826;6.214;2023-04-01T20:54:57;7.10;83.40
54938;DHT22;52756;52.826;6.214;2023-04-01T21:06:47;7.00;83.00
54938;DHT22;52756;52.826;6.214;2023-04-01T21:35:02;6.80;82.90
54938;DHT22;52756;52.826;6.214;2023-04-01T21:59:04;6.60;82.40
54938;DHT22;52756;52.826;6.214;2023-04-01T22:09:40;6.60;82.20
54938;DHT22;52756;52.826;6.214;2023-04-01T22:12:17;6.60;82.50
54938;DHT22;52756;52.826;6.214;2023-04-01T22:18:05;6.60;82.40
54938;DHT22;52756;52.826;6.214;2023-04-01T22:20:54;6.60;82.60
54938;DHT22;52756;52.826;6.214;2023-04-01T22:23:36;6.60;82.30
54938;DHT22;52756;52.826;6.214;2023-04-01T22:26:24;6.60;82.00
54938;DHT22;52756;52.826;6.214;2023-04-01T22:29:20;6.50;81.60
54938;DHT22;52756;52.826;6.214;2023-04-01T22:32:05;6.50;81.60
54938;DHT22;52756;52.826;6.214;2023-04-01T22:39:47;6.40;81.50
54938;DHT22;52756;52.826;6.214;2023-04-01T22:42:45;6.40;82.00
54938;DHT22;52756;52.826;6.214;2023-04-01T22:48:35;6.40;82.00
54938;DHT22;52756;52.826;6.214;2023-04-01T22:51:20;6.40;82.10
54938;DHT22;52756;52.826;6.214;2023-04-01T22:56:23;6.40;81.90
54938;DHT22;52756;52.826;6.214;2023-04-01T23:01:41;6.50;81.70
54938;DHT22;52756;52.826;6.214;2023-04-01T23:04:15;6.40;81.60
54938;DHT22;52756;52.826;6.214;2023-04-01T23:06:46;6.40;81.40
54938;DHT22;52756;52.826;6.214;2023-04-01T23:09:25;6.40;81.40
54938;DHT22;52756;52.826;6.214;2023-04-01T23:12:04;6.40;81.10
54938;DHT22;52756;52.826;6.214;2023-04-01T23:14:43;6.30;81.20
54938;DHT22;52756;52.826;6.214;2023-04-01T23:30:49;6.20;80.40
54938;DHT22;52756;52.826;6.214;2023-04-01T23:36:01;6.20;80.20
54938;DHT22;52756;52.826;6.214;2023-04-01T23:38:40;6.20;80.20
54938;DHT22;52756;52.826;6.214;2023-04-01T23:41:27;6.10;80.10
54938;DHT22;52756;52.826;6.214;2023-04-01T23:44:20;6.10;80.10
54938;DHT22;52756;52.826;6.214;2023-04-01T23:46:47;6.10;79.80
54938;DHT22;52756;52.826;6.214;2023-04-01T23:49:19;6.10;80.20
54938;DHT22;52756;52.826;6.214;2023-04-01T23:51:53;6.00;80.20
54938;DHT22;52756;52.826;6.214;2023-04-01T23:54:44;6.00;80.00
54938;DHT22;52756;52.826;6.214;2023-04-01T23:57:15;6.10;79.80
54938;DHT22;52756;52.826;6.214;2023-04-01T23:59:43;6.10;79.90
